sensor_id;sensor_type;location;lat;lon;timestamp;P1;durP1;ratioP1;P2;durP2;ratioP2
20649;SDS011;10484;48.736;9.332;2024-02-28T00:02:21;23.73;;;18.80;;
20649;SDS011;10484;48.736;9.332;2024-02-28T00:04:47;22.63;;;18.00;;
20649;SDS011;10484;48.736;9.332;2024-02-28T00:07:12;26.27;;;18.30;;
20649;SDS011;10484;48.736;9.332;2024-02-28T00:09:38;21.00;;;17.63;;
20649;SDS011;10484;48.736;9.332;2024-02-28T00:12:03;22.37;;;17.87;;
20649;SDS011;10484;48.736;9.332;2024-02-28T00:14:29;19.80;;;17.33;;
20649;SDS011;10484;48.736;9.332;2024-02-28T00:16:55;20.40;;;16.80;;
20649;SDS011;10484;48.736;9.332;2024-02-28T00:19:20;21.03;;;16.97;;
20649;SDS011;10484;48.736;9.332;2024-02-28T00:21:47;22.07;;;17.57;;
20649;SDS011;10484;48.736;9.332;2024-02-28T00:24:12;22.63;;;19.03;;
20649;SDS011;10484;48.736;9.332;2024-02-28T00:26:42;23.70;;;19.13;;
20649;SDS011;10484;48.736;9.332;2024-02-28T00:29:08;22.17;;;17.37;;
20649;SDS011;10484;48.736;9.332;2024-02-28T00:31:34;22.00;;;17.07;;
20649;SDS011;10484;48.736;9.332;2024-02-28T00:34:00;22.10;;;16.70;;
20649;SDS011;10484;48.736;9.332;2024-02-28T00:36:25;22.30;;;16.50;;
20649;SDS011;10484;48.736;9.332;2024-02-28T00:38:51;21.30;;;17.50;;
20649;SDS011;10484;48.736;9.332;2024-02-28T00:41:17;23.10;;;18.57;;
20649;SDS011;10484;48.736;9.332;2024-02-28T00:43:42;22.93;;;17.23;;
20649;SDS011;10484;48.736;9.332;2024-02-28T00:46:08;21.93;;;16.93;;
20649;SDS011;10484;48.736;9.332;2024-02-28T00:48:37;22.57;;;16.93;;
20649;SDS011;10484;48.736;9.332;2024-02-28T00:51:03;21.73;;;16.30;;
20649;SDS011;10484;48.736;9.332;2024-02-28T00:53:28;23.97;;;17.67;;
20649;SDS011;10484;48.736;9.332;2024-02-28T00:55:54;21.10;;;17.30;;
20649;SDS011;10484;48.736;9.332;2024-02-28T00:58:20;22.13;;;16.90;;
20649;SDS011;10484;48.736;9.332;2024-02-28T01:00:47;20.53;;;16.60;;
20649;SDS011;10484;48.736;9.332;2024-02-28T01:03:13;20.67;;;17.73;;
20649;SDS011;10484;48.736;9.332;2024-02-28T01:05:40;21.00;;;17.73;;
20649;SDS011;10484;48.736;9.332;2024-02-28T01:08:06;19.63;;;15.50;;
20649;SDS011;10484;48.736;9.332;2024-02-28T01:10:33;21.83;;;16.70;;
20649;SDS011;10484;48.736;9.332;2024-02-28T01:12:59;19.50;;;16.30;;
20649;SDS011;10484;48.736;9.332;2024-02-28T01:15:24;20.70;;;16.20;;
20649;SDS011;10484;48.736;9.332;2024-02-28T01:17:50;24.93;;;18.13;;
20649;SDS011;10484;48.736;9.332;2024-02-28T01:20:15;21.17;;;17.23;;
20649;SDS011;10484;48.736;9.332;2024-02-28T01:22:41;22.77;;;17.57;;
20649;SDS011;10484;48.736;9.332;2024-02-28T01:25:07;23.43;;;17.67;;
20649;SDS011;10484;48.736;9.332;2024-02-28T01:27:32;20.93;;;17.40;;
20649;SDS011;10484;48.736;9.332;2024-02-28T01:29:58;20.13;;;15.93;;
20649;SDS011;10484;48.736;9.332;2024-02-28T01:32:24;22.20;;;16.77;;
20649;SDS011;10484;48.736;9.332;2024-02-28T01:34:49;21.03;;;17.43;;
20649;SDS011;10484;48.736;9.332;2024-02-28T01:37:15;21.97;;;16.60;;
20649;SDS011;10484;48.736;9.332;2024-02-28T01:39:40;18.80;;;15.90;;
20649;SDS011;10484;48.736;9.332;2024-02-28T01:42:06;21.97;;;18.57;;
20649;SDS011;10484;48.736;9.332;2024-02-28T01:44:33;23.10;;;18.37;;
20649;SDS011;10484;48.736;9.332;2024-02-28T01:47:05;23.63;;;18.90;;
20649;SDS011;10484;48.736;9.332;2024-02-28T01:49:31;21.63;;;17.50;;
20649;SDS011;10484;48.736;9.332;2024-02-28T01:51:57;22.23;;;17.70;;
20649;SDS011;10484;48.736;9.332;2024-02-28T01:54:23;21.87;;;17.83;;
20649;SDS011;10484;48.736;9.332;2024-02-28T01:56:49;24.43;;;18.80;;
20649;SDS011;10484;48.736;9.332;2024-02-28T01:59:15;21.30;;;17.10;;
20649;SDS011;10484;48.736;9.332;2024-02-28T02:01:42;26.47;;;17.87;;
20649;SDS011;10484;48.736;9.332;2024-02-28T02:04:08;21.13;;;17.50;;
20649;SDS011;10484;48.736;9.332;2024-02-28T02:06:34;21.10;;;16.83;;
20649;SDS011;10484;48.736;9.332;2024-02-28T02:09:03;23.93;;;18.20;;
20649;SDS011;10484;48.736;9.332;2024-02-28T02:11:29;21.00;;;17.37;;
20649;SDS011;10484;48.736;9.332;2024-02-28T02:13:54;19.83;;;17.20;;
20649;SDS011;10484;48.736;9.332;2024-02-28T02:16:20;22.63;;;18.20;;
20649;SDS011;10484;48.736;9.332;2024-02-28T02:18:51;22.27;;;17.60;;
20649;SDS011;10484;48.736;9.332;2024-02-28T02:21:22;23.27;;;17.90;;
20649;SDS011;10484;48.736;9.332;2024-02-28T02:23:51;21.30;;;16.67;;
20649;SDS011;10484;48.736;9.332;2024-02-28T02:26:17;23.03;;;18.83;;
20649;SDS011;10484;48.736;9.332;2024-02-28T02:28:43;22.27;;;18.40;;
20649;SDS011;10484;48.736;9.332;2024-02-28T02:31:08;23.13;;;18.67;;
20649;SDS011;10484;48.736;9.332;2024-02-28T02:33:35;24.13;;;18.30;;
20649;SDS011;10484;48.736;9.332;2024-02-28T02:36:01;22.40;;;18.43;;
20649;SDS011;10484;48.736;9.332;2024-02-28T02:38:26;25.23;;;19.80;;
20649;SDS011;10484;48.736;9.332;2024-02-28T02:40:52;25.90;;;19.73;;
20649;SDS011;10484;48.736;9.332;2024-02-28T02:43:18;21.43;;;17.50;;
20649;SDS011;10484;48.736;9.332;2024-02-28T02:45:43;22.83;;;18.43;;
20649;SDS011;10484;48.736;9.332;2024-02-28T02:48:09;24.47;;;18.97;;
20649;SDS011;10484;48.736;9.332;2024-02-28T02:50:35;23.90;;;19.40;;
20649;SDS011;10484;48.736;9.332;2024-02-28T02:53:04;21.37;;;18.50;;
20649;SDS011;10484;48.736;9.332;2024-02-28T02:55:32;24.43;;;18.83;;
20649;SDS011;10484;48.736;9.332;2024-02-28T02:57:57;25.90;;;20.63;;
20649;SDS011;10484;48.736;9.332;2024-02-28T03:00:23;24.97;;;20.43;;
20649;SDS011;10484;48.736;9.332;2024-02-28T03:02:48;28.67;;;22.43;;
20649;SDS011;10484;48.736;9.332;2024-02-28T03:05:14;25.70;;;19.53;;
20649;SDS011;10484;48.736;9.332;2024-02-28T03:07:40;25.70;;;19.47;;
20649;SDS011;10484;48.736;9.332;2024-02-28T03:10:05;21.47;;;18.53;;
20649;SDS011;10484;48.736;9.332;2024-02-28T03:12:31;24.53;;;18.90;;
20649;SDS011;10484;48.736;9.332;2024-02-28T03:14:57;26.67;;;18.63;;
20649;SDS011;10484;48.736;9.332;2024-02-28T03:17:23;25.20;;;18.97;;
20649;SDS011;10484;48.736;9.332;2024-02-28T03:19:48;23.87;;;18.80;;
20649;SDS011;10484;48.736;9.332;2024-02-28T03:22:14;22.30;;;17.27;;
20649;SDS011;10484;48.736;9.332;2024-02-28T03:24:40;24.97;;;19.43;;
20649;SDS011;10484;48.736;9.332;2024-02-28T03:27:06;24.10;;;18.77;;
20649;SDS011;10484;48.736;9.332;2024-02-28T03:29:31;24.67;;;19.13;;
20649;SDS011;10484;48.736;9.332;2024-02-28T03:31:58;29.70;;;19.57;;
20649;SDS011;10484;48.736;9.332;2024-02-28T03:34:24;23.50;;;18.73;;
20649;SDS011;10484;48.736;9.332;2024-02-28T03:36:49;22.00;;;19.07;;
20649;SDS011;10484;48.736;9.332;2024-02-28T03:39:16;23.70;;;18.77;;
20649;SDS011;10484;48.736;9.332;2024-02-28T03:41:41;25.27;;;19.33;;
20649;SDS011;10484;48.736;9.332;2024-02-28T03:44:07;29.20;;;20.40;;
20649;SDS011;10484;48.736;9.332;2024-02-28T03:46:33;25.20;;;18.80;;
20649;SDS011;10484;48.736;9.332;2024-02-28T03:48:58;25.10;;;20.30;;
20649;SDS011;10484;48.736;9.332;2024-02-28T03:51:24;23.07;;;19.17;;
20649;SDS011;10484;48.736;9.332;2024-02-28T03:53:49;22.10;;;17.43;;
20649;SDS011;10484;48.736;9.332;2024-02-28T03:56:22;23.50;;;19.20;;
20649;SDS011;10484;48.736;9.332;2024-02-28T03:58:49;26.60;;;19.23;;
20649;SDS011;10484;48.736;9.332;2024-02-28T04:01:15;22.70;;;17.53;;
20649;SDS011;10484;48.736;9.332;2024-02-28T04:03:41;24.00;;;19.43;;
20649;SDS011;10484;48.736;9.332;2024-02-28T04:06:06;23.17;;;17.73;;
20649;SDS011;10484;48.736;9.332;2024-02-28T04:08:32;22.60;;;17.73;;
20649;SDS011;10484;48.736;9.332;2024-02-28T04:10:57;24.07;;;19.20;;
20649;SDS011;10484;48.736;9.332;2024-02-28T04:13:23;24.70;;;18.63;;
20649;SDS011;10484;48.736;9.332;2024-02-28T04:15:49;24.03;;;18.13;;
20649;SDS011;10484;48.736;9.332;2024-02-28T04:18:14;25.03;;;19.17;;
20649;SDS011;10484;48.736;9.332;2024-02-28T04:20:40;26.93;;;18.57;;
20649;SDS011;10484;48.736;9.332;2024-02-28T04:23:05;25.47;;;19.93;;
20649;SDS011;10484;48.736;9.332;2024-02-28T04:25:31;23.30;;;17.43;;
20649;SDS011;10484;48.736;9.332;2024-02-28T04:27:57;25.20;;;19.60;;
20649;SDS011;10484;48.736;9.332;2024-02-28T04:30:22;25.70;;;20.50;;
20649;SDS011;10484;48.736;9.332;2024-02-28T04:32:48;23.80;;;20.93;;
20649;SDS011;10484;48.736;9.332;2024-02-28T04:35:14;27.07;;;21.03;;
20649;SDS011;10484;48.736;9.332;2024-02-28T04:37:43;25.80;;;19.90;;
20649;SDS011;10484;48.736;9.332;2024-02-28T04:40:10;29.47;;;21.57;;
20649;SDS011;10484;48.736;9.332;2024-02-28T04:42:36;27.50;;;20.40;;
20649;SDS011;10484;48.736;9.332;2024-02-28T04:45:01;25.30;;;18.63;;
20649;SDS011;10484;48.736;9.332;2024-02-28T04:47:27;25.70;;;21.20;;
20649;SDS011;10484;48.736;9.332;2024-02-28T04:49:53;26.97;;;20.63;;
20649;SDS011;10484;48.736;9.332;2024-02-28T04:52:19;25.77;;;19.07;;
20649;SDS011;10484;48.736;9.332;2024-02-28T04:54:45;32.53;;;22.10;;
20649;SDS011;10484;48.736;9.332;2024-02-28T04:57:10;25.63;;;20.50;;
20649;SDS011;10484;48.736;9.332;2024-02-28T04:59:36;28.17;;;21.80;;
20649;SDS011;10484;48.736;9.332;2024-02-28T05:02:01;29.07;;;21.97;;
20649;SDS011;10484;48.736;9.332;2024-02-28T05:04:28;24.40;;;20.50;;
20649;SDS011;10484;48.736;9.332;2024-02-28T05:06:54;27.90;;;21.17;;
20649;SDS011;10484;48.736;9.332;2024-02-28T05:09:19;26.97;;;21.00;;
20649;SDS011;10484;48.736;9.332;2024-02-28T05:11:45;27.70;;;20.60;;
20649;SDS011;10484;48.736;9.332;2024-02-28T05:14:10;27.03;;;21.13;;
20649;SDS011;10484;48.736;9.332;2024-02-28T05:16:36;25.83;;;20.97;;
20649;SDS011;10484;48.736;9.332;2024-02-28T05:19:02;24.50;;;19.63;;
20649;SDS011;10484;48.736;9.332;2024-02-28T05:21:29;28.13;;;20.50;;
20649;SDS011;10484;48.736;9.332;2024-02-28T05:23:54;29.87;;;21.80;;
20649;SDS011;10484;48.736;9.332;2024-02-28T05:26:20;26.50;;;20.40;;
20649;SDS011;10484;48.736;9.332;2024-02-28T05:28:46;25.83;;;20.77;;
20649;SDS011;10484;48.736;9.332;2024-02-28T05:31:21;27.10;;;20.50;;
20649;SDS011;10484;48.736;9.332;2024-02-28T05:33:51;27.80;;;20.60;;
20649;SDS011;10484;48.736;9.332;2024-02-28T05:36:19;27.37;;;20.57;;
20649;SDS011;10484;48.736;9.332;2024-02-28T05:38:45;25.33;;;20.10;;
20649;SDS011;10484;48.736;9.332;2024-02-28T05:41:10;28.17;;;20.80;;
20649;SDS011;10484;48.736;9.332;2024-02-28T05:43:36;27.17;;;20.23;;
20649;SDS011;10484;48.736;9.332;2024-02-28T05:46:03;27.77;;;22.17;;
20649;SDS011;10484;48.736;9.332;2024-02-28T05:48:28;23.73;;;20.23;;
20649;SDS011;10484;48.736;9.332;2024-02-28T05:50:54;25.03;;;20.30;;
20649;SDS011;10484;48.736;9.332;2024-02-28T05:53:20;28.20;;;21.50;;
20649;SDS011;10484;48.736;9.332;2024-02-28T05:55:46;26.07;;;20.23;;
20649;SDS011;10484;48.736;9.332;2024-02-28T05:58:13;24.70;;;19.83;;
20649;SDS011;10484;48.736;9.332;2024-02-28T06:00:38;25.23;;;19.47;;
20649;SDS011;10484;48.736;9.332;2024-02-28T06:03:04;26.07;;;19.60;;
20649;SDS011;10484;48.736;9.332;2024-02-28T06:05:30;24.97;;;18.93;;
20649;SDS011;10484;48.736;9.332;2024-02-28T06:07:56;23.10;;;19.47;;
20649;SDS011;10484;48.736;9.332;2024-02-28T06:10:21;27.73;;;21.53;;
20649;SDS011;10484;48.736;9.332;2024-02-28T06:12:47;25.20;;;19.90;;
20649;SDS011;10484;48.736;9.332;2024-02-28T06:15:12;24.80;;;19.53;;
20649;SDS011;10484;48.736;9.332;2024-02-28T06:17:38;25.97;;;20.27;;
20649;SDS011;10484;48.736;9.332;2024-02-28T06:20:04;25.07;;;20.43;;
20649;SDS011;10484;48.736;9.332;2024-02-28T06:22:31;23.53;;;18.50;;
20649;SDS011;10484;48.736;9.332;2024-02-28T06:24:56;26.60;;;20.53;;
20649;SDS011;10484;48.736;9.332;2024-02-28T06:27:22;23.70;;;19.60;;
20649;SDS011;10484;48.736;9.332;2024-02-28T06:29:48;23.80;;;18.70;;
20649;SDS011;10484;48.736;9.332;2024-02-28T06:32:14;22.80;;;18.10;;
20649;SDS011;10484;48.736;9.332;2024-02-28T06:34:39;25.10;;;18.40;;
20649;SDS011;10484;48.736;9.332;2024-02-28T06:37:05;22.03;;;19.20;;
20649;SDS011;10484;48.736;9.332;2024-02-28T06:39:30;25.50;;;20.10;;
20649;SDS011;10484;48.736;9.332;2024-02-28T06:41:56;20.33;;;17.67;;
20649;SDS011;10484;48.736;9.332;2024-02-28T06:44:22;24.60;;;18.93;;
20649;SDS011;10484;48.736;9.332;2024-02-28T06:46:47;22.77;;;18.00;;
20649;SDS011;10484;48.736;9.332;2024-02-28T06:49:13;22.20;;;18.50;;
20649;SDS011;10484;48.736;9.332;2024-02-28T06:51:38;26.10;;;20.00;;
20649;SDS011;10484;48.736;9.332;2024-02-28T06:54:04;21.80;;;19.00;;
20649;SDS011;10484;48.736;9.332;2024-02-28T06:56:30;26.00;;;20.10;;
20649;SDS011;10484;48.736;9.332;2024-02-28T06:58:55;25.73;;;19.60;;
20649;SDS011;10484;48.736;9.332;2024-02-28T07:01:21;25.83;;;19.80;;
20649;SDS011;10484;48.736;9.332;2024-02-28T07:03:47;21.20;;;17.13;;
20649;SDS011;10484;48.736;9.332;2024-02-28T07:06:12;22.37;;;18.43;;
20649;SDS011;10484;48.736;9.332;2024-02-28T07:08:38;20.23;;;18.10;;
20649;SDS011;10484;48.736;9.332;2024-02-28T07:11:04;22.70;;;17.80;;
20649;SDS011;10484;48.736;9.332;2024-02-28T07:13:29;23.83;;;17.90;;
20649;SDS011;10484;48.736;9.332;2024-02-28T07:15:55;23.77;;;18.07;;
20649;SDS011;10484;48.736;9.332;2024-02-28T07:18:22;19.17;;;16.40;;
20649;SDS011;10484;48.736;9.332;2024-02-28T07:20:50;24.27;;;18.20;;
20649;SDS011;10484;48.736;9.332;2024-02-28T07:23:17;20.80;;;17.50;;
20649;SDS011;10484;48.736;9.332;2024-02-28T07:25:42;21.37;;;17.50;;
20649;SDS011;10484;48.736;9.332;2024-02-28T07:28:08;22.20;;;17.27;;
20649;SDS011;10484;48.736;9.332;2024-02-28T07:30:34;21.70;;;17.47;;
20649;SDS011;10484;48.736;9.332;2024-02-28T07:33:00;21.37;;;17.03;;
20649;SDS011;10484;48.736;9.332;2024-02-28T07:35:26;22.83;;;18.23;;
20649;SDS011;10484;48.736;9.332;2024-02-28T07:37:51;21.30;;;17.83;;
20649;SDS011;10484;48.736;9.332;2024-02-28T07:40:17;24.00;;;19.03;;
20649;SDS011;10484;48.736;9.332;2024-02-28T07:42:43;24.50;;;18.80;;
20649;SDS011;10484;48.736;9.332;2024-02-28T07:45:09;23.57;;;19.40;;
20649;SDS011;10484;48.736;9.332;2024-02-28T07:47:35;22.13;;;18.00;;
20649;SDS011;10484;48.736;9.332;2024-02-28T07:50:02;22.80;;;18.97;;
20649;SDS011;10484;48.736;9.332;2024-02-28T07:52:28;22.63;;;17.83;;
20649;SDS011;10484;48.736;9.332;2024-02-28T08:39:27;19.67;;;17.50;;
20649;SDS011;10484;48.736;9.332;2024-02-28T08:41:53;22.60;;;18.40;;
20649;SDS011;10484;48.736;9.332;2024-02-28T08:44:18;20.20;;;17.03;;
20649;SDS011;10484;48.736;9.332;2024-02-28T08:46:46;21.37;;;17.20;;
20649;SDS011;10484;48.736;9.332;2024-02-28T08:49:13;20.73;;;16.63;;
20649;SDS011;10484;48.736;9.332;2024-02-28T08:51:39;22.30;;;17.77;;
20649;SDS011;10484;48.736;9.332;2024-02-28T08:54:05;22.93;;;17.20;;
20649;SDS011;10484;48.736;9.332;2024-02-28T08:56:31;22.53;;;18.07;;
20649;SDS011;10484;48.736;9.332;2024-02-28T08:58:56;19.83;;;16.67;;
20649;SDS011;10484;48.736;9.332;2024-02-28T09:01:22;23.10;;;17.57;;
20649;SDS011;10484;48.736;9.332;2024-02-28T09:03:47;20.27;;;17.43;;
20649;SDS011;10484;48.736;9.332;2024-02-28T09:06:14;21.57;;;17.47;;
20649;SDS011;10484;48.736;9.332;2024-02-28T09:08:39;20.10;;;17.17;;
20649;SDS011;10484;48.736;9.332;2024-02-28T09:11:05;20.67;;;16.50;;
20649;SDS011;10484;48.736;9.332;2024-02-28T09:13:31;21.20;;;18.40;;
20649;SDS011;10484;48.736;9.332;2024-02-28T09:15:56;20.17;;;15.93;;
20649;SDS011;10484;48.736;9.332;2024-02-28T09:18:22;19.93;;;16.87;;
20649;SDS011;10484;48.736;9.332;2024-02-28T09:20:48;21.53;;;18.50;;
20649;SDS011;10484;48.736;9.332;2024-02-28T09:23:14;23.90;;;19.80;;
20649;SDS011;10484;48.736;9.332;2024-02-28T09:25:39;23.07;;;17.57;;
20649;SDS011;10484;48.736;9.332;2024-02-28T09:28:05;19.07;;;17.03;;
20649;SDS011;10484;48.736;9.332;2024-02-28T09:30:31;19.67;;;16.60;;
20649;SDS011;10484;48.736;9.332;2024-02-28T09:32:56;21.17;;;16.90;;
20649;SDS011;10484;48.736;9.332;2024-02-28T09:35:22;24.80;;;18.37;;
20649;SDS011;10484;48.736;9.332;2024-02-28T09:37:47;21.37;;;18.40;;
20649;SDS011;10484;48.736;9.332;2024-02-28T09:40:13;23.30;;;16.37;;
20649;SDS011;10484;48.736;9.332;2024-02-28T09:42:39;21.10;;;18.10;;
20649;SDS011;10484;48.736;9.332;2024-02-28T09:45:04;19.63;;;16.67;;
20649;SDS011;10484;48.736;9.332;2024-02-28T09:47:35;22.10;;;17.93;;
20649;SDS011;10484;48.736;9.332;2024-02-28T09:50:00;20.30;;;16.70;;
20649;SDS011;10484;48.736;9.332;2024-02-28T09:52:27;20.30;;;17.30;;
20649;SDS011;10484;48.736;9.332;2024-02-28T09:54:53;19.30;;;16.33;;
20649;SDS011;10484;48.736;9.332;2024-02-28T09:57:19;19.60;;;16.13;;
20649;SDS011;10484;48.736;9.332;2024-02-28T09:59:45;22.37;;;16.90;;
20649;SDS011;10484;48.736;9.332;2024-02-28T10:02:12;18.40;;;15.07;;
20649;SDS011;10484;48.736;9.332;2024-02-28T10:04:42;18.60;;;15.97;;
20649;SDS011;10484;48.736;9.332;2024-02-28T10:07:11;23.87;;;17.03;;
20649;SDS011;10484;48.736;9.332;2024-02-28T10:09:38;22.00;;;16.93;;
20649;SDS011;10484;48.736;9.332;2024-02-28T10:12:04;23.53;;;17.77;;
20649;SDS011;10484;48.736;9.332;2024-02-28T10:14:30;19.63;;;16.13;;
20649;SDS011;10484;48.736;9.332;2024-02-28T10:16:56;20.50;;;17.00;;
20649;SDS011;10484;48.736;9.332;2024-02-28T10:19:21;18.83;;;16.60;;
20649;SDS011;10484;48.736;9.332;2024-02-28T10:21:47;20.70;;;16.73;;
20649;SDS011;10484;48.736;9.332;2024-02-28T10:24:12;19.63;;;16.73;;
20649;SDS011;10484;48.736;9.332;2024-02-28T10:26:45;22.10;;;17.67;;
20649;SDS011;10484;48.736;9.332;2024-02-28T10:29:20;21.83;;;17.50;;
20649;SDS011;10484;48.736;9.332;2024-02-28T10:31:47;20.93;;;15.93;;
20649;SDS011;10484;48.736;9.332;2024-02-28T10:34:13;19.50;;;15.50;;
20649;SDS011;10484;48.736;9.332;2024-02-28T10:36:42;19.53;;;16.17;;
20649;SDS011;10484;48.736;9.332;2024-02-28T10:39:08;20.60;;;16.93;;
20649;SDS011;10484;48.736;9.332;2024-02-28T10:41:37;20.97;;;17.27;;
20649;SDS011;10484;48.736;9.332;2024-02-28T10:44:04;20.37;;;17.20;;
20649;SDS011;10484;48.736;9.332;2024-02-28T10:46:30;23.20;;;17.53;;
20649;SDS011;10484;48.736;9.332;2024-02-28T10:48:56;18.97;;;16.63;;
20649;SDS011;10484;48.736;9.332;2024-02-28T10:51:23;20.30;;;15.87;;
20649;SDS011;10484;48.736;9.332;2024-02-28T10:54:08;19.03;;;16.60;;
20649;SDS011;10484;48.736;9.332;2024-02-28T10:56:36;17.13;;;14.70;;
20649;SDS011;10484;48.736;9.332;2024-02-28T10:59:06;19.50;;;15.93;;
20649;SDS011;10484;48.736;9.332;2024-02-28T11:01:36;19.63;;;16.33;;
20649;SDS011;10484;48.736;9.332;2024-02-28T11:04:06;20.70;;;16.63;;
20649;SDS011;10484;48.736;9.332;2024-02-28T11:06:32;19.77;;;17.20;;
20649;SDS011;10484;48.736;9.332;2024-02-28T11:08:59;18.50;;;15.80;;
20649;SDS011;10484;48.736;9.332;2024-02-28T11:11:29;22.50;;;16.50;;
20649;SDS011;10484;48.736;9.332;2024-02-28T11:13:57;21.00;;;17.60;;
20649;SDS011;10484;48.736;9.332;2024-02-28T11:16:28;21.77;;;17.27;;
20649;SDS011;10484;48.736;9.332;2024-02-28T11:18:55;21.63;;;16.93;;
20649;SDS011;10484;48.736;9.332;2024-02-28T11:21:24;18.40;;;16.40;;
20649;SDS011;10484;48.736;9.332;2024-02-28T11:23:51;19.70;;;15.90;;
20649;SDS011;10484;48.736;9.332;2024-02-28T11:26:17;21.73;;;17.23;;
20649;SDS011;10484;48.736;9.332;2024-02-28T11:28:43;22.20;;;17.20;;
20649;SDS011;10484;48.736;9.332;2024-02-28T11:31:09;21.13;;;16.60;;
20649;SDS011;10484;48.736;9.332;2024-02-28T11:33:35;20.80;;;16.67;;
20649;SDS011;10484;48.736;9.332;2024-02-28T11:36:01;22.00;;;16.83;;
20649;SDS011;10484;48.736;9.332;2024-02-28T11:38:28;18.77;;;16.27;;
20649;SDS011;10484;48.736;9.332;2024-02-28T11:40:54;19.63;;;15.83;;
20649;SDS011;10484;48.736;9.332;2024-02-28T11:43:22;20.77;;;17.90;;
20649;SDS011;10484;48.736;9.332;2024-02-28T11:45:48;17.80;;;15.10;;
20649;SDS011;10484;48.736;9.332;2024-02-28T11:48:14;20.73;;;15.90;;
20649;SDS011;10484;48.736;9.332;2024-02-28T11:50:41;23.00;;;16.07;;
20649;SDS011;10484;48.736;9.332;2024-02-28T11:53:07;25.67;;;18.57;;
20649;SDS011;10484;48.736;9.332;2024-02-28T11:55:32;21.70;;;17.47;;
20649;SDS011;10484;48.736;9.332;2024-02-28T11:57:58;21.77;;;17.03;;
20649;SDS011;10484;48.736;9.332;2024-02-28T12:00:24;19.73;;;15.97;;
20649;SDS011;10484;48.736;9.332;2024-02-28T12:02:49;20.63;;;17.07;;
20649;SDS011;10484;48.736;9.332;2024-02-28T12:05:15;18.40;;;15.50;;
20649;SDS011;10484;48.736;9.332;2024-02-28T12:07:41;21.40;;;16.30;;
20649;SDS011;10484;48.736;9.332;2024-02-28T12:10:08;22.20;;;15.93;;
20649;SDS011;10484;48.736;9.332;2024-02-28T12:12:34;23.03;;;17.70;;
20649;SDS011;10484;48.736;9.332;2024-02-28T12:14:59;23.10;;;17.40;;
20649;SDS011;10484;48.736;9.332;2024-02-28T12:17:26;22.70;;;18.20;;
20649;SDS011;10484;48.736;9.332;2024-02-28T12:19:52;22.33;;;17.67;;
20649;SDS011;10484;48.736;9.332;2024-02-28T12:22:18;22.60;;;16.90;;
20649;SDS011;10484;48.736;9.332;2024-02-28T12:24:44;21.17;;;16.90;;
20649;SDS011;10484;48.736;9.332;2024-02-28T12:27:09;26.50;;;18.00;;
20649;SDS011;10484;48.736;9.332;2024-02-28T12:29:35;26.90;;;18.70;;
20649;SDS011;10484;48.736;9.332;2024-02-28T12:32:01;23.50;;;18.30;;
20649;SDS011;10484;48.736;9.332;2024-02-28T12:34:27;27.13;;;19.27;;
20649;SDS011;10484;48.736;9.332;2024-02-28T12:36:52;22.40;;;16.90;;
20649;SDS011;10484;48.736;9.332;2024-02-28T12:39:19;22.60;;;17.43;;
20649;SDS011;10484;48.736;9.332;2024-02-28T12:41:44;23.43;;;18.27;;
20649;SDS011;10484;48.736;9.332;2024-02-28T12:44:10;21.77;;;18.17;;
20649;SDS011;10484;48.736;9.332;2024-02-28T12:46:35;20.57;;;17.57;;
20649;SDS011;10484;48.736;9.332;2024-02-28T12:49:02;23.30;;;17.67;;
20649;SDS011;10484;48.736;9.332;2024-02-28T12:51:38;22.80;;;17.87;;
20649;SDS011;10484;48.736;9.332;2024-02-28T12:54:13;23.43;;;18.07;;
20649;SDS011;10484;48.736;9.332;2024-02-28T12:56:40;22.93;;;16.73;;
20649;SDS011;10484;48.736;9.332;2024-02-28T12:59:09;24.57;;;20.83;;
20649;SDS011;10484;48.736;9.332;2024-02-28T13:01:34;26.10;;;18.90;;
20649;SDS011;10484;48.736;9.332;2024-02-28T13:04:01;25.40;;;18.77;;
20649;SDS011;10484;48.736;9.332;2024-02-28T13:06:27;23.63;;;17.73;;
20649;SDS011;10484;48.736;9.332;2024-02-28T13:08:52;24.00;;;17.67;;
20649;SDS011;10484;48.736;9.332;2024-02-28T13:11:18;23.27;;;17.87;;
20649;SDS011;10484;48.736;9.332;2024-02-28T13:13:45;21.70;;;17.60;;
20649;SDS011;10484;48.736;9.332;2024-02-28T13:16:11;22.80;;;17.17;;
20649;SDS011;10484;48.736;9.332;2024-02-28T13:18:37;22.70;;;18.17;;
20649;SDS011;10484;48.736;9.332;2024-02-28T13:21:03;22.80;;;18.27;;
20649;SDS011;10484;48.736;9.332;2024-02-28T13:23:29;23.30;;;18.10;;
20649;SDS011;10484;48.736;9.332;2024-02-28T13:25:56;21.00;;;17.60;;
20649;SDS011;10484;48.736;9.332;2024-02-28T13:28:22;23.67;;;18.77;;
20649;SDS011;10484;48.736;9.332;2024-02-28T13:30:54;22.23;;;17.10;;
20649;SDS011;10484;48.736;9.332;2024-02-28T13:33:21;20.57;;;17.37;;
20649;SDS011;10484;48.736;9.332;2024-02-28T13:35:47;23.70;;;18.10;;
20649;SDS011;10484;48.736;9.332;2024-02-28T13:38:12;26.90;;;19.67;;
20649;SDS011;10484;48.736;9.332;2024-02-28T13:40:38;27.43;;;19.03;;
20649;SDS011;10484;48.736;9.332;2024-02-28T13:43:04;18.83;;;16.50;;
20649;SDS011;10484;48.736;9.332;2024-02-28T13:45:29;25.67;;;18.07;;
20649;SDS011;10484;48.736;9.332;2024-02-28T13:47:55;20.70;;;17.07;;
20649;SDS011;10484;48.736;9.332;2024-02-28T13:50:20;21.40;;;16.87;;
20649;SDS011;10484;48.736;9.332;2024-02-28T13:52:46;27.27;;;20.33;;
20649;SDS011;10484;48.736;9.332;2024-02-28T13:55:12;23.20;;;18.03;;
20649;SDS011;10484;48.736;9.332;2024-02-28T13:57:37;24.20;;;19.00;;
20649;SDS011;10484;48.736;9.332;2024-02-28T14:00:03;23.57;;;18.43;;
20649;SDS011;10484;48.736;9.332;2024-02-28T14:02:31;25.70;;;17.70;;
20649;SDS011;10484;48.736;9.332;2024-02-28T14:04:57;24.47;;;18.47;;
20649;SDS011;10484;48.736;9.332;2024-02-28T14:07:22;21.20;;;17.20;;
20649;SDS011;10484;48.736;9.332;2024-02-28T14:09:48;23.60;;;18.27;;
20649;SDS011;10484;48.736;9.332;2024-02-28T14:12:13;20.23;;;16.43;;
20649;SDS011;10484;48.736;9.332;2024-02-28T14:14:39;22.40;;;17.37;;
20649;SDS011;10484;48.736;9.332;2024-02-28T14:17:05;18.57;;;15.60;;
20649;SDS011;10484;48.736;9.332;2024-02-28T14:19:32;20.80;;;16.17;;
20649;SDS011;10484;48.736;9.332;2024-02-28T14:21:57;22.50;;;17.53;;
20649;SDS011;10484;48.736;9.332;2024-02-28T14:24:23;20.57;;;16.20;;
20649;SDS011;10484;48.736;9.332;2024-02-28T14:26:49;20.67;;;15.93;;
20649;SDS011;10484;48.736;9.332;2024-02-28T14:29:14;19.90;;;15.93;;
20649;SDS011;10484;48.736;9.332;2024-02-28T14:31:40;26.50;;;17.70;;
20649;SDS011;10484;48.736;9.332;2024-02-28T14:34:07;20.83;;;15.80;;
20649;SDS011;10484;48.736;9.332;2024-02-28T14:36:32;19.40;;;15.03;;
20649;SDS011;10484;48.736;9.332;2024-02-28T14:38:58;21.10;;;16.10;;
20649;SDS011;10484;48.736;9.332;2024-02-28T14:41:24;18.00;;;14.80;;
20649;SDS011;10484;48.736;9.332;2024-02-28T14:43:50;19.40;;;15.90;;
20649;SDS011;10484;48.736;9.332;2024-02-28T14:46:16;24.07;;;16.83;;
20649;SDS011;10484;48.736;9.332;2024-02-28T14:48:44;21.93;;;16.37;;
20649;SDS011;10484;48.736;9.332;2024-02-28T14:51:16;18.80;;;15.17;;
20649;SDS011;10484;48.736;9.332;2024-02-28T14:53:42;20.67;;;14.87;;
20649;SDS011;10484;48.736;9.332;2024-02-28T14:56:08;19.20;;;15.70;;
20649;SDS011;10484;48.736;9.332;2024-02-28T14:58:33;19.47;;;15.63;;
20649;SDS011;10484;48.736;9.332;2024-02-28T15:00:59;20.27;;;14.77;;